createdAt,value
2022-08-14T00:00:27.507Z,999.50
2022-08-14T00:01:27.520Z,999.50
2022-08-14T00:02:31.309Z,999.49
2022-08-14T00:03:29.362Z,999.52
2022-08-14T00:04:34.593Z,999.50
2022-08-14T00:05:28.444Z,999.52
2022-08-14T00:06:28.542Z,999.55
2022-08-14T00:07:27.444Z,999.58
2022-08-14T00:08:44.427Z,999.54
2022-08-14T00:09:28.416Z,999.50
2022-08-14T00:10:52.273Z,999.52
2022-08-14T00:11:31.846Z,999.50
2022-08-14T00:12:33.107Z,999.52
2022-08-14T00:13:28.346Z,999.54
2022-08-14T00:14:27.324Z,999.50
2022-08-14T00:15:27.311Z,999.46
2022-08-14T00:16:41.499Z,999.48
2022-08-14T00:17:28.311Z,999.44
2022-08-14T00:18:30.836Z,999.42
2022-08-14T00:19:28.268Z,999.41
2022-08-14T00:20:30.275Z,999.42
2022-08-14T00:21:28.324Z,999.39
2022-08-14T00:22:57.219Z,999.35
2022-08-14T00:23:28.206Z,999.37
2022-08-14T00:24:28.854Z,999.41
2022-08-14T00:25:30.642Z,999.37
2022-08-14T00:26:28.199Z,999.38
2022-08-14T00:27:27.146Z,999.40
2022-08-14T00:28:29.044Z,999.40
2022-08-14T00:29:28.116Z,999.37
2022-08-14T00:30:27.212Z,999.39
2022-08-14T00:31:34.999Z,999.41
2022-08-14T00:32:52.832Z,999.43
2022-08-14T00:33:50.754Z,999.42
2022-08-14T00:34:37.089Z,999.44
2022-08-14T00:36:33.981Z,999.45
2022-08-14T00:36:36.781Z,999.43
2022-08-14T00:37:28.045Z,999.45
2022-08-14T00:38:27.015Z,999.42
2022-08-14T00:39:27.067Z,999.43
2022-08-14T00:40:33.046Z,999.42
2022-08-14T00:41:27.955Z,999.45
2022-08-14T00:42:55.767Z,999.45
2022-08-14T00:43:32.261Z,999.45
2022-08-14T00:44:32.024Z,999.42
2022-08-14T00:45:27.904Z,999.39
2022-08-14T00:46:33.379Z,999.37
2022-08-14T00:47:27.897Z,999.38
2022-08-14T00:48:34.306Z,999.38
2022-08-14T00:49:27.855Z,999.40
2022-08-14T00:50:26.835Z,999.40
2022-08-14T00:51:34.643Z,999.39
2022-08-14T00:52:27.818Z,999.35
2022-08-14T00:53:26.795Z,999.38
2022-08-14T00:54:26.846Z,999.37
2022-08-14T00:55:26.783Z,999.37
2022-08-14T00:56:26.755Z,999.38
2022-08-14T00:57:26.762Z,999.39
2022-08-14T00:58:27.910Z,999.35
2022-08-14T00:59:27.723Z,999.34
2022-08-14T01:00:37.223Z,999.31
2022-08-14T01:01:27.732Z,999.35
2022-08-14T01:02:28.189Z,999.28
2022-08-14T01:03:27.665Z,999.29
2022-08-14T01:04:51.839Z,999.27
2022-08-14T01:05:27.635Z,999.29
2022-08-14T01:06:30.166Z,999.30
2022-08-14T01:07:27.626Z,999.25
2022-08-14T01:08:51.382Z,999.25
2022-08-14T01:09:27.583Z,999.25
2022-08-14T01:10:26.568Z,999.22
2022-08-14T01:11:35.571Z,999.22
2022-08-14T01:12:29.903Z,999.18
2022-08-14T01:13:26.535Z,999.18
2022-08-14T01:14:28.490Z,999.24
2022-08-14T01:15:31.783Z,999.24
2022-08-14T01:16:30.822Z,999.23
2022-08-14T01:17:26.535Z,999.25
2022-08-14T01:18:26.465Z,999.26
2022-08-14T01:19:26.458Z,999.27
2022-08-14T01:20:27.705Z,999.27
2022-08-14T01:21:26.432Z,999.32
2022-08-14T01:22:26.657Z,999.31
2022-08-14T01:23:26.403Z,999.31
2022-08-14T01:24:30.613Z,999.33
2022-08-14T01:25:27.376Z,999.23
2022-08-14T01:26:35.152Z,999.22
2022-08-14T01:27:27.368Z,999.26
2022-08-14T01:28:46.626Z,999.27
2022-08-14T01:29:51.210Z,999.26
2022-08-14T01:30:27.308Z,999.26
2022-08-14T01:31:26.322Z,999.26
2022-08-14T01:32:26.293Z,999.30
2022-08-14T01:33:26.274Z,999.27
2022-08-14T01:35:17.958Z,999.25
2022-08-14T01:36:03.940Z,999.26
2022-08-14T01:36:27.226Z,999.26
2022-08-14T01:37:26.225Z,999.27
2022-08-14T01:38:26.194Z,999.28
2022-08-14T01:39:26.209Z,999.25
2022-08-14T01:40:36.710Z,999.26
2022-08-14T01:41:29.705Z,999.27
2022-08-14T01:42:32.233Z,999.25
2022-08-14T01:43:27.183Z,999.21
2022-08-14T01:44:32.722Z,999.23
2022-08-14T01:45:27.116Z,999.24
2022-08-14T01:46:26.113Z,999.25
2022-08-14T01:47:27.088Z,999.25
2022-08-14T01:48:27.060Z,999.27
2022-08-14T01:49:26.055Z,999.25
2022-08-14T01:50:27.044Z,999.22
2022-08-14T01:51:26.064Z,999.23
2022-08-14T01:52:33.576Z,999.24
2022-08-14T01:53:29.673Z,999.20
2022-08-14T01:54:37.884Z,999.19
2022-08-14T01:55:26.996Z,999.19
2022-08-14T01:56:25.955Z,999.16
2022-08-14T01:57:25.956Z,999.16
2022-08-14T01:58:28.932Z,999.16
2022-08-14T01:59:26.780Z,999.17
2022-08-14T02:00:27.775Z,999.14
2022-08-14T02:01:26.656Z,999.12
2022-08-14T02:02:25.881Z,999.05
2022-08-14T02:03:30.132Z,999.11
2022-08-14T02:04:56.146Z,999.11
2022-08-14T02:05:26.870Z,999.11
2022-08-14T02:06:33.228Z,999.08
2022-08-14T02:07:34.675Z,999.07
2022-08-14T02:08:34.583Z,999.05
2022-08-14T02:09:26.786Z,999.05
2022-08-14T02:10:26.278Z,999.00
2022-08-14T02:11:25.769Z,998.96
2022-08-14T02:12:26.279Z,998.99
2022-08-14T02:13:25.723Z,998.96
2022-08-14T02:14:31.232Z,998.97
2022-08-14T02:15:26.704Z,999.02
2022-08-14T02:16:26.254Z,999.00
2022-08-14T02:17:25.707Z,999.02
2022-08-14T02:18:25.653Z,999.03
2022-08-14T02:19:25.643Z,998.98
2022-08-14T02:20:25.623Z,999.01
2022-08-14T02:21:25.634Z,999.02
2022-08-14T02:22:32.599Z,998.98
2022-08-14T02:23:32.419Z,999.02
2022-08-14T02:24:39.328Z,999.03
2022-08-14T02:25:29.876Z,999.02
2022-08-14T02:26:29.157Z,998.98
2022-08-14T02:28:25.730Z,998.97
2022-08-14T02:28:58.241Z,998.98
2022-08-14T02:29:26.535Z,998.98
2022-08-14T02:30:26.495Z,998.97
2022-08-14T02:31:28.617Z,998.95
2022-08-14T02:32:36.207Z,998.90
2022-08-14T02:33:26.453Z,998.94
2022-08-14T02:34:27.519Z,998.91
2022-08-14T02:35:26.534Z,998.88
2022-08-14T02:37:04.591Z,998.87
2022-08-14T02:37:26.425Z,998.86
2022-08-14T02:38:29.403Z,998.89
2022-08-14T02:39:25.397Z,998.88
2022-08-14T02:40:32.445Z,998.87
2022-08-14T02:41:28.577Z,998.85
2022-08-14T02:42:37.226Z,998.81
2022-08-14T02:43:36.589Z,998.86
2022-08-14T02:44:29.517Z,998.80
2022-08-14T02:45:25.323Z,998.84
2022-08-14T02:46:27.191Z,998.86
2022-08-14T02:47:26.261Z,998.83
2022-08-14T02:49:02.759Z,998.87
2022-08-14T02:49:26.233Z,998.85
2022-08-14T02:50:27.101Z,998.84
2022-08-14T02:51:25.214Z,998.88
2022-08-14T02:52:55.589Z,998.84
2022-08-14T02:53:26.215Z,998.83
2022-08-14T02:54:25.174Z,998.88
2022-08-14T02:55:25.167Z,998.81
2022-08-14T02:57:13.784Z,998.87
2022-08-14T02:57:40.254Z,998.90
2022-08-14T02:58:30.479Z,998.95
2022-08-14T02:59:25.114Z,998.91
2022-08-14T03:00:25.123Z,998.86
2022-08-14T03:01:31.132Z,998.96
2022-08-14T03:02:33.581Z,998.93
2022-08-14T03:03:26.049Z,998.94
2022-08-14T03:04:25.299Z,998.95
2022-08-14T03:05:25.072Z,998.96
2022-08-14T03:06:34.948Z,998.95
2022-08-14T03:07:25.983Z,998.90
2022-08-14T03:08:24.985Z,998.92
2022-08-14T03:09:24.963Z,998.94
2022-08-14T03:10:33.275Z,998.94
2022-08-14T03:11:25.947Z,998.95
2022-08-14T03:12:30.954Z,998.91
2022-08-14T03:13:25.937Z,998.90
2022-08-14T03:14:27.422Z,998.92
2022-08-14T03:15:24.882Z,998.92
2022-08-14T03:16:26.614Z,998.95
2022-08-14T03:17:24.873Z,998.91
2022-08-14T03:18:31.889Z,998.98
2022-08-14T03:19:25.840Z,998.93
2022-08-14T03:20:24.822Z,998.92
2022-08-14T03:21:24.825Z,998.95
2022-08-14T03:22:24.798Z,998.93
2022-08-14T03:23:24.778Z,998.94
2022-08-14T03:24:24.773Z,998.94
2022-08-14T03:25:24.763Z,998.95
2022-08-14T03:26:29.955Z,998.99
2022-08-14T03:27:26.573Z,998.99
2022-08-14T03:28:33.091Z,999.00
2022-08-14T03:29:26.386Z,998.99
2022-08-14T03:30:24.685Z,998.99
2022-08-14T03:31:26.044Z,999.02
2022-08-14T03:32:30.350Z,999.00
2022-08-14T03:33:25.651Z,999.03
2022-08-14T03:34:47.997Z,998.99
2022-08-14T03:35:37.409Z,998.91
2022-08-14T03:37:38.207Z,998.90
2022-08-14T03:37:50.922Z,998.95
2022-08-14T03:39:16.050Z,998.93
2022-08-14T03:39:27.628Z,998.93
2022-08-14T03:40:24.554Z,998.88
2022-08-14T03:41:24.553Z,998.88
2022-08-14T03:42:24.522Z,998.84
2022-08-14T03:43:25.545Z,998.90
2022-08-14T03:45:20.251Z,998.89
2022-08-14T03:45:34.696Z,998.87
2022-08-14T03:46:52.983Z,998.86
2022-08-14T03:47:46.192Z,998.90
2022-08-14T03:48:30.178Z,998.88
2022-08-14T03:49:28.408Z,998.80
2022-08-14T03:50:27.841Z,998.77
2022-08-14T03:51:25.413Z,998.77
2022-08-14T03:52:39.171Z,998.81
2022-08-14T03:53:25.378Z,998.81
2022-08-14T03:54:24.361Z,998.73
2022-08-14T03:55:24.342Z,998.75
2022-08-14T03:56:24.371Z,998.76
2022-08-14T03:57:24.331Z,998.73
2022-08-14T03:58:36.210Z,998.71
2022-08-14T03:59:28.702Z,998.68
2022-08-14T04:00:43.235Z,998.70
2022-08-14T04:01:25.335Z,998.65
2022-08-14T04:02:33.377Z,998.65
2022-08-14T04:03:25.270Z,998.67
2022-08-14T04:04:24.230Z,998.71
2022-08-14T04:05:24.221Z,998.71
2022-08-14T04:06:28.452Z,998.74
2022-08-14T04:07:25.182Z,998.70
2022-08-14T04:08:30.396Z,998.70
2022-08-14T04:09:26.638Z,998.70
2022-08-14T04:10:31.701Z,998.70
2022-08-14T04:11:25.146Z,998.70
2022-08-14T04:12:26.087Z,998.72
2022-08-14T04:13:24.143Z,998.71
2022-08-14T04:14:24.102Z,998.67
2022-08-14T04:15:24.083Z,998.64
2022-08-14T04:16:24.078Z,998.61
2022-08-14T04:17:24.058Z,998.60
2022-08-14T04:18:24.041Z,998.62
2022-08-14T04:19:24.691Z,998.61
2022-08-14T04:20:25.774Z,998.58
2022-08-14T04:21:24.010Z,998.59
2022-08-14T04:22:24.029Z,998.56
2022-08-14T04:23:29.786Z,998.58
2022-08-14T04:24:25.889Z,998.47
2022-08-14T04:25:23.963Z,998.59
2022-08-14T04:26:27.510Z,998.63
2022-08-14T04:27:24.923Z,998.61
2022-08-14T04:29:07.369Z,998.62
2022-08-14T04:29:24.891Z,998.55
2022-08-14T04:30:32.449Z,998.54
2022-08-14T04:32:56.443Z,998.59
2022-08-14T04:32:59.322Z,998.58
2022-08-14T04:33:25.172Z,998.57
2022-08-14T04:34:27.222Z,998.59
2022-08-14T04:35:23.833Z,998.56
2022-08-14T04:36:24.039Z,998.54
2022-08-14T04:37:25.246Z,998.55
2022-08-14T04:38:36.960Z,998.54
2022-08-14T04:39:24.813Z,998.51
2022-08-14T04:40:23.877Z,998.50
2022-08-14T04:41:23.743Z,998.42
2022-08-14T04:42:24.721Z,998.39
2022-08-14T04:43:23.700Z,998.36
2022-08-14T04:44:35.794Z,998.40
2022-08-14T04:45:24.701Z,998.43
2022-08-14T04:46:55.641Z,998.36
2022-08-14T04:47:24.652Z,998.40
2022-08-14T04:48:38.834Z,998.40
2022-08-14T04:49:24.621Z,998.46
2022-08-14T04:50:33.758Z,998.43
2022-08-14T04:51:24.602Z,998.48
2022-08-14T04:52:24.852Z,998.47
2022-08-14T04:53:26.211Z,998.47
2022-08-14T04:54:24.641Z,998.46
2022-08-14T04:55:23.561Z,998.47
2022-08-14T04:56:30.716Z,998.47
2022-08-14T04:57:24.519Z,998.44
2022-08-14T04:58:32.961Z,998.46
2022-08-14T04:59:24.494Z,998.44
2022-08-14T05:00:23.500Z,998.38
2022-08-14T05:01:23.491Z,998.27
2022-08-14T05:02:23.505Z,998.32
2022-08-14T05:03:23.441Z,998.29
2022-08-14T05:04:23.462Z,998.24
2022-08-14T05:05:23.420Z,998.29
2022-08-14T05:06:37.547Z,998.22
2022-08-14T05:07:46.454Z,998.18
2022-08-14T05:08:31.742Z,998.18
2022-08-14T05:09:24.381Z,998.14
2022-08-14T05:10:24.780Z,998.20
2022-08-14T05:11:23.355Z,998.17
2022-08-14T05:13:11.149Z,998.17
2022-08-14T05:13:29.893Z,998.15
2022-08-14T05:14:46.784Z,998.22
2022-08-14T05:15:24.294Z,998.20
2022-08-14T05:16:23.271Z,998.18
2022-08-14T05:17:23.265Z,998.18
2022-08-14T05:19:16.957Z,998.17
2022-08-14T05:19:26.841Z,998.14
2022-08-14T05:21:04.073Z,998.18
2022-08-14T05:22:01.367Z,998.19
2022-08-14T05:22:24.191Z,998.15
2022-08-14T05:23:23.195Z,998.20
2022-08-14T05:24:23.172Z,998.16
2022-08-14T05:25:23.142Z,998.14
2022-08-14T05:26:23.140Z,998.14
2022-08-14T05:27:24.076Z,998.14
2022-08-14T05:28:23.122Z,998.11
2022-08-14T05:29:23.112Z,998.15
2022-08-14T05:30:23.082Z,998.14
2022-08-14T05:31:23.083Z,998.08
2022-08-14T05:32:27.420Z,998.04
2022-08-14T05:33:23.043Z,998.09
2022-08-14T05:34:23.033Z,998.08
2022-08-14T05:35:24.032Z,998.06
2022-08-14T05:36:23.036Z,997.99
2022-08-14T05:37:22.990Z,998.00
2022-08-14T05:38:31.074Z,997.99
2022-08-14T05:39:24.001Z,998.03
2022-08-14T05:40:22.953Z,997.99
2022-08-14T05:41:22.935Z,997.98
2022-08-14T05:42:29.357Z,997.91
2022-08-14T05:43:23.912Z,997.93
2022-08-14T05:44:27.881Z,997.90
2022-08-14T05:45:23.887Z,997.86
2022-08-14T05:46:23.053Z,997.84
2022-08-14T05:47:22.855Z,997.85
2022-08-14T05:48:23.280Z,997.80
2022-08-14T05:49:26.008Z,997.80
2022-08-14T05:50:23.824Z,997.76
2022-08-14T05:51:22.818Z,997.78
2022-08-14T05:52:38.303Z,997.78
2022-08-14T05:53:23.773Z,997.79
2022-08-14T05:54:26.938Z,997.79
2022-08-14T05:55:23.283Z,997.81
2022-08-14T05:56:22.737Z,997.81
2022-08-14T05:57:22.716Z,997.77
2022-08-14T05:58:22.714Z,997.76
2022-08-14T05:59:39.101Z,997.75
2022-08-14T06:00:25.010Z,997.71
2022-08-14T06:01:23.719Z,997.71
2022-08-14T06:02:22.656Z,997.71
2022-08-14T06:03:22.646Z,997.76
2022-08-14T06:04:22.636Z,997.75
2022-08-14T06:05:23.278Z,997.76
2022-08-14T06:06:22.606Z,997.76
2022-08-14T06:07:22.587Z,997.77
2022-08-14T06:08:36.013Z,997.80
2022-08-14T06:09:23.576Z,997.71
2022-08-14T06:10:22.556Z,997.73
2022-08-14T06:11:30.779Z,997.73
2022-08-14T06:13:00.100Z,997.69
2022-08-14T06:13:23.516Z,997.68
2022-08-14T06:14:24.006Z,997.65
2022-08-14T06:15:26.281Z,997.63
2022-08-14T06:16:23.479Z,997.62
2022-08-14T06:17:25.763Z,997.63
2022-08-14T06:18:22.488Z,997.63
2022-08-14T06:19:23.154Z,997.63
2022-08-14T06:20:22.429Z,997.57
2022-08-14T06:21:22.617Z,997.59
2022-08-14T06:22:22.399Z,997.56
2022-08-14T06:23:22.393Z,997.54
2022-08-14T06:24:22.380Z,997.52
2022-08-14T06:25:22.361Z,997.51
2022-08-14T06:26:22.673Z,997.51
2022-08-14T06:27:23.341Z,997.51
2022-08-14T06:28:27.146Z,997.50
2022-08-14T06:29:23.326Z,997.47
2022-08-14T06:30:22.299Z,997.49
2022-08-14T06:31:22.684Z,997.48
2022-08-14T06:32:38.175Z,997.47
2022-08-14T06:33:23.268Z,997.48
2022-08-14T06:35:03.521Z,997.46
2022-08-14T06:35:23.233Z,997.46
2022-08-14T06:36:22.273Z,997.40
2022-08-14T06:37:22.213Z,997.40
2022-08-14T06:38:23.349Z,997.42
2022-08-14T06:39:36.610Z,997.39
2022-08-14T06:40:27.183Z,997.34
2022-08-14T06:41:57.102Z,997.35
2022-08-14T06:42:33.025Z,997.36
2022-08-14T06:43:27.096Z,997.31
2022-08-14T06:44:32.775Z,997.35
2022-08-14T06:45:26.060Z,997.36
2022-08-14T06:46:23.081Z,997.32
2022-08-14T06:47:23.083Z,997.35
2022-08-14T06:48:22.073Z,997.37
2022-08-14T06:49:22.100Z,997.39
2022-08-14T06:50:27.770Z,997.41
2022-08-14T06:51:23.037Z,997.41
2022-08-14T06:52:22.014Z,997.40
2022-08-14T06:53:22.008Z,997.44
2022-08-14T06:54:23.007Z,997.43
2022-08-14T06:55:27.799Z,997.42
2022-08-14T06:56:22.980Z,997.41
2022-08-14T06:57:21.964Z,997.38
2022-08-14T06:58:28.769Z,997.41
2022-08-14T06:59:22.948Z,997.42
2022-08-14T07:00:27.281Z,997.37
2022-08-14T07:01:27.848Z,997.40
2022-08-14T07:02:22.896Z,997.38
2022-08-14T07:03:22.888Z,997.39
2022-08-14T07:04:22.696Z,997.33
2022-08-14T07:05:23.401Z,997.32
2022-08-14T07:06:46.242Z,997.28
2022-08-14T07:07:22.850Z,997.32
2022-08-14T07:08:21.855Z,997.32
2022-08-14T07:09:23.087Z,997.29
2022-08-14T07:10:21.787Z,997.28
2022-08-14T07:11:21.777Z,997.29
2022-08-14T07:12:54.127Z,997.26
2022-08-14T07:13:22.775Z,997.26
2022-08-14T07:14:21.758Z,997.27
2022-08-14T07:15:21.749Z,997.23
2022-08-14T07:16:21.726Z,997.25
2022-08-14T07:17:22.708Z,997.27
2022-08-14T07:18:21.708Z,997.27
2022-08-14T07:19:21.765Z,997.22
2022-08-14T07:20:30.976Z,997.24
2022-08-14T07:21:23.677Z,997.19
2022-08-14T07:22:21.719Z,997.23
2022-08-14T07:23:21.883Z,997.19
2022-08-14T07:24:31.001Z,997.23
2022-08-14T07:25:22.618Z,997.23
2022-08-14T07:26:22.592Z,997.24
2022-08-14T07:27:21.820Z,997.25
2022-08-14T07:28:21.673Z,997.27
2022-08-14T07:29:26.068Z,997.30
2022-08-14T07:30:33.745Z,997.26
2022-08-14T07:31:22.545Z,997.28
2022-08-14T07:32:22.209Z,997.29
2022-08-14T07:33:24.934Z,997.29
2022-08-14T07:34:26.454Z,997.25
2022-08-14T07:35:22.517Z,997.27
2022-08-14T07:36:30.217Z,997.23
2022-08-14T07:37:22.502Z,997.16
2022-08-14T07:38:21.472Z,997.20
2022-08-14T07:39:27.659Z,997.17
2022-08-14T07:40:27.724Z,997.17
2022-08-14T07:41:22.425Z,997.21
2022-08-14T07:42:22.584Z,997.21
2022-08-14T07:43:21.413Z,997.17
2022-08-14T07:44:32.869Z,997.17
2022-08-14T07:45:22.402Z,997.18
2022-08-14T07:46:28.572Z,997.17
2022-08-14T07:47:22.334Z,997.21
2022-08-14T07:48:25.443Z,997.17
2022-08-14T07:49:21.336Z,997.13
2022-08-14T07:50:21.386Z,997.12
2022-08-14T07:51:21.285Z,997.10
2022-08-14T07:52:22.154Z,997.08
2022-08-14T07:53:22.277Z,997.04
2022-08-14T07:54:23.307Z,997.06
2022-08-14T07:55:22.269Z,997.07
2022-08-14T07:56:43.674Z,997.03
2022-08-14T07:57:24.944Z,997.03
2022-08-14T07:58:34.057Z,997.01
2022-08-14T07:59:40.557Z,997.03
2022-08-14T08:00:30.999Z,997.02
2022-08-14T08:01:22.168Z,997.03
2022-08-14T08:02:21.892Z,997.08
2022-08-14T08:03:21.244Z,997.11
2022-08-14T08:04:24.482Z,997.04
2022-08-14T08:05:22.127Z,997.08
2022-08-14T08:06:21.152Z,997.07
2022-08-14T08:07:21.111Z,997.11
2022-08-14T08:08:27.025Z,997.07
2022-08-14T08:09:22.100Z,997.08
2022-08-14T08:10:46.583Z,997.09
2022-08-14T08:11:22.048Z,997.06
2022-08-14T08:12:23.078Z,997.04
2022-08-14T08:13:22.193Z,997.06
2022-08-14T08:14:21.021Z,996.98
2022-08-14T08:15:21.008Z,996.96
2022-08-14T08:16:20.990Z,996.98
2022-08-14T08:17:21.000Z,996.95
2022-08-14T08:18:29.363Z,996.97
2022-08-14T08:19:21.965Z,997.00
2022-08-14T08:20:20.945Z,996.98
2022-08-14T08:21:20.945Z,997.01
2022-08-14T08:22:20.911Z,996.99
2022-08-14T08:23:20.944Z,997.02
2022-08-14T08:24:21.894Z,997.02
2022-08-14T08:25:20.925Z,997.05
2022-08-14T08:26:20.880Z,997.01
2022-08-14T08:27:21.329Z,996.99
2022-08-14T08:28:25.230Z,997.03
2022-08-14T08:29:28.219Z,997.01
2022-08-14T08:30:21.821Z,996.92
2022-08-14T08:31:20.854Z,996.98
2022-08-14T08:32:20.793Z,996.96
2022-08-14T08:33:21.795Z,996.96
2022-08-14T08:34:20.768Z,996.95
2022-08-14T08:35:20.765Z,996.94
2022-08-14T08:36:20.753Z,996.97
2022-08-14T08:37:20.760Z,996.95
2022-08-14T08:39:14.587Z,996.98
2022-08-14T08:39:22.669Z,996.94
2022-08-14T08:40:21.021Z,996.96
2022-08-14T08:41:20.684Z,996.99
2022-08-14T08:42:24.523Z,996.93
2022-08-14T08:43:21.702Z,996.95
2022-08-14T08:44:31.865Z,996.94
2022-08-14T08:45:21.642Z,996.92
2022-08-14T08:46:23.304Z,996.97
2022-08-14T08:47:20.612Z,996.93
2022-08-14T08:48:31.933Z,996.89
2022-08-14T08:49:21.588Z,996.90
2022-08-14T08:50:23.521Z,996.89
2022-08-14T08:51:20.566Z,996.90
2022-08-14T08:52:24.417Z,996.84
2022-08-14T08:53:21.540Z,996.86
2022-08-14T08:54:26.538Z,996.81
2022-08-14T08:55:21.546Z,996.78
2022-08-14T08:56:30.259Z,996.79
2022-08-14T08:57:21.742Z,996.78
2022-08-14T08:58:24.998Z,996.70
2022-08-14T08:59:21.458Z,996.68
2022-08-14T09:00:25.571Z,996.70
2022-08-14T09:01:21.501Z,996.67
2022-08-14T09:02:20.420Z,996.64
2022-08-14T09:03:20.686Z,996.60
2022-08-14T09:04:20.622Z,996.59
2022-08-14T09:05:20.391Z,996.57
2022-08-14T09:06:53.814Z,996.58
2022-08-14T09:07:21.372Z,996.57
2022-08-14T09:08:30.134Z,996.55
2022-08-14T09:09:21.346Z,996.55
2022-08-14T09:10:22.349Z,996.54
2022-08-14T09:11:21.194Z,996.50
2022-08-14T09:12:20.293Z,996.52
2022-08-14T09:13:20.293Z,996.49
2022-08-14T09:14:20.261Z,996.47
2022-08-14T09:15:20.262Z,996.50
2022-08-14T09:16:20.261Z,996.49
2022-08-14T09:17:20.235Z,996.41
2022-08-14T09:18:21.233Z,996.41
2022-08-14T09:19:20.210Z,996.36
2022-08-14T09:20:25.919Z,996.34
2022-08-14T09:21:21.209Z,996.31
2022-08-14T09:22:33.330Z,996.35
2022-08-14T09:23:21.195Z,996.33
2022-08-14T09:24:28.646Z,996.33
2022-08-14T09:26:01.397Z,996.32
2022-08-14T09:26:21.697Z,996.29
2022-08-14T09:27:22.728Z,996.27
2022-08-14T09:28:20.095Z,996.23
2022-08-14T09:29:23.524Z,996.23
2022-08-14T09:30:32.479Z,996.26
2022-08-14T09:31:21.056Z,996.23
2022-08-14T09:32:59.582Z,996.19
2022-08-14T09:33:22.573Z,996.21
2022-08-14T09:34:28.264Z,996.19
2022-08-14T09:35:21.017Z,996.19
2022-08-14T09:36:19.996Z,996.18
2022-08-14T09:37:20.002Z,996.17
2022-08-14T09:38:26.160Z,996.16
2022-08-14T09:39:21.379Z,996.17
2022-08-14T09:40:21.025Z,996.14
2022-08-14T09:41:19.943Z,996.05
2022-08-14T09:42:32.546Z,996.06
2022-08-14T09:43:22.615Z,996.09
2022-08-14T09:44:21.001Z,996.06
2022-08-14T09:45:19.888Z,996.02
2022-08-14T09:46:21.186Z,995.97
2022-08-14T09:47:20.868Z,995.92
2022-08-14T09:48:19.841Z,995.92
2022-08-14T09:49:19.871Z,995.96
2022-08-14T09:50:19.818Z,995.96
2022-08-14T09:51:19.831Z,995.99
2022-08-14T09:52:33.148Z,995.91
2022-08-14T09:53:20.803Z,995.85
2022-08-14T09:54:23.519Z,995.94
2022-08-14T09:55:21.448Z,995.88
2022-08-14T09:56:24.349Z,995.85
2022-08-14T09:57:20.743Z,995.86
2022-08-14T09:58:22.810Z,995.85
2022-08-14T09:59:19.705Z,995.83
2022-08-14T10:00:29.283Z,995.79
2022-08-14T10:01:20.684Z,995.74
2022-08-14T10:02:19.751Z,995.74
2022-08-14T10:03:19.669Z,995.67
2022-08-14T10:04:34.209Z,995.66
2022-08-14T10:05:20.655Z,995.66
2022-08-14T10:06:19.886Z,995.61
2022-08-14T10:07:19.615Z,995.60
2022-08-14T10:08:25.306Z,995.65
2022-08-14T10:09:20.596Z,995.61
2022-08-14T10:10:23.402Z,995.61
2022-08-14T10:11:23.362Z,995.61
2022-08-14T10:12:28.970Z,995.57
2022-08-14T10:13:20.537Z,995.59
2022-08-14T10:14:35.015Z,995.60
2022-08-14T10:15:20.509Z,995.60
2022-08-14T10:16:21.130Z,995.61
2022-08-14T10:17:19.505Z,995.57
2022-08-14T10:18:19.468Z,995.58
2022-08-14T10:19:20.444Z,995.56
2022-08-14T10:20:40.326Z,995.55
2022-08-14T10:21:20.449Z,995.58
2022-08-14T10:23:12.709Z,995.49
2022-08-14T10:23:20.409Z,995.58
2022-08-14T10:24:19.389Z,995.55
2022-08-14T10:25:19.391Z,995.51
2022-08-14T10:26:22.958Z,995.49
2022-08-14T10:27:20.382Z,995.43
2022-08-14T10:28:51.638Z,995.46
2022-08-14T10:29:23.681Z,995.47
2022-08-14T10:30:22.403Z,995.46
2022-08-14T10:31:20.323Z,995.44
2022-08-14T10:32:28.488Z,995.44
2022-08-14T10:33:20.282Z,995.41
2022-08-14T10:34:19.272Z,995.39
2022-08-14T10:35:22.381Z,995.36
2022-08-14T10:36:34.499Z,995.39
2022-08-14T10:37:23.010Z,995.39
2022-08-14T10:38:19.212Z,995.34
2022-08-14T10:39:19.327Z,995.39
2022-08-14T10:40:37.020Z,995.46
2022-08-14T10:41:20.197Z,995.35
2022-08-14T10:42:21.281Z,995.37
2022-08-14T10:43:19.163Z,995.34
2022-08-14T10:44:20.833Z,995.32
2022-08-14T10:45:19.161Z,995.26
2022-08-14T10:47:37.972Z,995.27
2022-08-14T10:47:41.429Z,995.28
2022-08-14T10:48:34.447Z,995.27
2022-08-14T10:49:20.094Z,995.22
2022-08-14T10:50:19.069Z,995.26
2022-08-14T10:51:19.105Z,995.24
2022-08-14T10:52:19.045Z,995.28
2022-08-14T10:53:19.032Z,995.25
2022-08-14T10:54:39.961Z,995.26
2022-08-14T10:55:20.903Z,995.20
2022-08-14T10:56:21.861Z,995.31
2022-08-14T10:57:19.990Z,995.26
2022-08-14T10:58:18.955Z,995.25
2022-08-14T10:59:18.957Z,995.14
2022-08-14T11:00:20.444Z,995.19
2022-08-14T11:01:18.930Z,995.18
2022-08-14T11:02:18.939Z,995.18
2022-08-14T11:03:36.002Z,995.19
2022-08-14T11:04:19.925Z,995.19
2022-08-14T11:05:19.876Z,995.16
2022-08-14T11:06:18.872Z,995.15
2022-08-14T11:07:21.416Z,995.12
2022-08-14T11:08:18.839Z,995.11
2022-08-14T11:09:18.832Z,995.10
2022-08-14T11:10:18.819Z,995.08
2022-08-14T11:11:18.830Z,995.04
2022-08-14T11:12:34.245Z,995.03
2022-08-14T11:13:19.781Z,994.97
2022-08-14T11:14:22.520Z,994.99
2022-08-14T11:15:18.759Z,994.95
2022-08-14T11:16:19.625Z,994.95
2022-08-14T11:17:21.667Z,994.94
2022-08-14T11:18:20.402Z,994.87
2022-08-14T11:19:19.694Z,994.92
2022-08-14T11:20:18.692Z,994.90
2022-08-14T11:21:18.673Z,994.89
2022-08-14T11:22:55.993Z,994.88
2022-08-14T11:23:19.649Z,994.82
2022-08-14T11:24:51.018Z,994.85
2022-08-14T11:25:19.615Z,994.91
2022-08-14T11:26:18.655Z,994.93
2022-08-14T11:27:19.000Z,994.94
2022-08-14T11:28:19.407Z,994.93
2022-08-14T11:29:18.575Z,994.91
2022-08-14T11:30:50.160Z,994.94
2022-08-14T11:31:19.577Z,994.95
2022-08-14T11:32:18.565Z,994.89
2022-08-14T11:33:18.526Z,994.89
2022-08-14T11:34:31.859Z,994.85
2022-08-14T11:35:19.497Z,994.97
2022-08-14T11:36:19.002Z,994.89
2022-08-14T11:37:24.900Z,994.89
2022-08-14T11:38:19.457Z,994.85
2022-08-14T11:39:18.479Z,994.81
2022-08-14T11:40:19.926Z,994.75
2022-08-14T11:41:19.438Z,994.83
2022-08-14T11:42:56.270Z,994.86
2022-08-14T11:43:29.010Z,994.85
2022-08-14T11:44:46.055Z,994.81
2022-08-14T11:45:23.535Z,994.80
2022-08-14T11:46:29.534Z,994.82
2022-08-14T11:47:19.346Z,994.76
2022-08-14T11:49:03.050Z,994.70
2022-08-14T11:49:22.138Z,994.70
2022-08-14T11:50:25.144Z,994.76
2022-08-14T11:51:19.321Z,994.72
2022-08-14T11:52:19.292Z,994.69
2022-08-14T11:53:18.271Z,994.68
2022-08-14T11:54:19.846Z,994.67
2022-08-14T11:55:22.314Z,994.63
2022-08-14T11:56:19.247Z,994.64
2022-08-14T11:57:19.218Z,994.63
2022-08-14T11:58:24.286Z,994.63
2022-08-14T11:59:19.190Z,994.56
2022-08-14T12:00:19.564Z,994.57
2022-08-14T12:01:18.182Z,994.56
2022-08-14T12:03:00.301Z,994.57
2022-08-14T12:03:27.337Z,994.60
2022-08-14T12:04:31.791Z,994.62
2022-08-14T12:05:19.164Z,994.59
2022-08-14T12:06:29.207Z,994.59
2022-08-14T12:07:19.089Z,994.53
2022-08-14T12:08:18.199Z,994.55
2022-08-14T12:09:19.070Z,994.53
2022-08-14T12:10:26.992Z,994.51
2022-08-14T12:11:19.071Z,994.49
2022-08-14T12:12:35.118Z,994.53
2022-08-14T12:13:19.025Z,994.51
2022-08-14T12:14:30.365Z,994.52
2022-08-14T12:15:18.994Z,994.50
2022-08-14T12:16:20.664Z,994.44
2022-08-14T12:17:23.424Z,994.45
2022-08-14T12:18:19.379Z,994.47
2022-08-14T12:19:17.960Z,994.47
2022-08-14T12:20:29.951Z,994.45
2022-08-14T12:21:19.396Z,994.46
2022-08-14T12:22:29.808Z,994.40
2022-08-14T12:23:18.921Z,994.41
2022-08-14T12:24:36.038Z,994.43
2022-08-14T12:25:18.882Z,994.42
2022-08-14T12:26:39.632Z,994.39
2022-08-14T12:27:18.844Z,994.40
2022-08-14T12:28:27.273Z,994.39